sensor_id;sensor_type;location;lat;lon;timestamp;pressure;altitude;pressure_sealevel;temperature;humidity
56671;BME280;42545;50.054;8.306;2023-05-16T00:00:27;99740.66;;;12.38;88.31
56671;BME280;42545;50.054;8.306;2023-05-16T00:02:59;99737.97;;;12.33;88.79
56671;BME280;42545;50.054;8.306;2023-05-16T00:05:26;99733.56;;;12.30;89.00
56671;BME280;42545;50.054;8.306;2023-05-16T00:07:52;99730.03;;;12.28;88.97
56671;BME280;42545;50.054;8.306;2023-05-16T00:10:19;99733.53;;;12.27;89.32
56671;BME280;42545;50.054;8.306;2023-05-16T00:12:47;99737.06;;;12.25;89.26
56671;BME280;42545;50.054;8.306;2023-05-16T00:15:16;99737.06;;;12.23;89.49
56671;BME280;42545;50.054;8.306;2023-05-16T00:17:44;99735.28;;;12.21;89.64
56671;BME280;42545;50.054;8.306;2023-05-16T00:20:11;99743.19;;;12.19;89.37
56671;BME280;42545;50.054;8.306;2023-05-16T00:22:38;99743.22;;;12.18;89.65
56671;BME280;42545;50.054;8.306;2023-05-16T00:25:06;99731.75;;;12.16;89.41
56671;BME280;42545;50.054;8.306;2023-05-16T00:27:34;99729.09;;;12.14;89.58
56671;BME280;42545;50.054;8.306;2023-05-16T00:30:03;99729.09;;;12.14;89.69
56671;BME280;42545;50.054;8.306;2023-05-16T00:32:31;99732.59;;;12.13;89.48
56671;BME280;42545;50.054;8.306;2023-05-16T00:34:57;99737.84;;;12.10;89.41
56671;BME280;42545;50.054;8.306;2023-05-16T00:37:24;99745.78;;;12.10;89.81
56671;BME280;42545;50.054;8.306;2023-05-16T00:39:50;99739.63;;;12.11;90.08
56671;BME280;42545;50.054;8.306;2023-05-16T00:42:18;99739.66;;;12.14;89.82
56671;BME280;42545;50.054;8.306;2023-05-16T00:44:45;99737.88;;;12.13;90.20
56671;BME280;42545;50.054;8.306;2023-05-16T00:47:13;99744.06;;;12.15;90.08
56671;BME280;42545;50.054;8.306;2023-05-16T00:49:39;99742.31;;;12.16;90.40
56671;BME280;42545;50.054;8.306;2023-05-16T00:52:06;99744.06;;;12.17;89.83
56671;BME280;42545;50.054;8.306;2023-05-16T00:54:32;99754.66;;;12.17;90.19
56671;BME280;42545;50.054;8.306;2023-05-16T00:56:59;99749.38;;;12.17;90.15
56671;BME280;42545;50.054;8.306;2023-05-16T00:59:26;99739.66;;;12.17;90.02
56671;BME280;42545;50.054;8.306;2023-05-16T01:01:52;99738.78;;;12.17;89.87
56671;BME280;42545;50.054;8.306;2023-05-16T01:04:21;99738.78;;;12.17;89.71
56671;BME280;42545;50.054;8.306;2023-05-16T01:06:48;99736.13;;;12.15;89.64
56671;BME280;42545;50.054;8.306;2023-05-16T01:09:15;99732.59;;;12.13;89.54
56671;BME280;42545;50.054;8.306;2023-05-16T01:11:46;99738.75;;;12.10;89.36
56671;BME280;42545;50.054;8.306;2023-05-16T01:14:19;99738.75;;;12.09;89.38
56671;BME280;42545;50.054;8.306;2023-05-16T01:16:53;99746.69;;;12.07;89.63
56671;BME280;42545;50.054;8.306;2023-05-16T01:19:31;99742.25;;;12.05;89.59
56671;BME280;42545;50.054;8.306;2023-05-16T01:22:14;99740.47;;;12.04;89.98
56671;BME280;42545;50.054;8.306;2023-05-16T01:24:47;99746.63;;;12.03;89.90
56671;BME280;42545;50.054;8.306;2023-05-16T01:27:24;99745.75;;;11.99;90.23
56671;BME280;42545;50.054;8.306;2023-05-16T01:29:54;99751.88;;;11.95;89.98
56671;BME280;42545;50.054;8.306;2023-05-16T01:32:21;99751.88;;;11.92;89.89
56671;BME280;42545;50.054;8.306;2023-05-16T01:34:49;99750.03;;;11.88;90.24
56671;BME280;42545;50.054;8.306;2023-05-16T01:37:18;99757.09;;;11.87;90.29
56671;BME280;42545;50.054;8.306;2023-05-16T01:39:51;99758.88;;;11.88;90.48
56671;BME280;42545;50.054;8.306;2023-05-16T01:42:25;99757.97;;;11.86;90.73
56671;BME280;42545;50.054;8.306;2023-05-16T01:44:59;99761.47;;;11.82;90.40
56671;BME280;42545;50.054;8.306;2023-05-16T01:47:29;99751.75;;;11.77;90.26
56671;BME280;42545;50.054;8.306;2023-05-16T01:50:03;99748.19;;;11.73;89.93
56671;BME280;42545;50.054;8.306;2023-05-16T01:52:37;99742.00;;;11.69;89.97
56671;BME280;42545;50.054;8.306;2023-05-16T01:55:09;99742.88;;;11.67;90.24
56671;BME280;42545;50.054;8.306;2023-05-16T01:57:38;99741.06;;;11.64;90.55
56671;BME280;42545;50.054;8.306;2023-05-16T02:00:07;99747.22;;;11.60;90.60
56671;BME280;42545;50.054;8.306;2023-05-16T02:02:34;99746.34;;;11.58;90.83
56671;BME280;42545;50.054;8.306;2023-05-16T02:05:00;99756.88;;;11.55;91.00
56671;BME280;42545;50.054;8.306;2023-05-16T02:07:27;99739.19;;;11.48;91.13
56671;BME280;42545;50.054;8.306;2023-05-16T02:09:54;99748.94;;;11.50;91.09
56671;BME280;42545;50.054;8.306;2023-05-16T02:12:20;99758.59;;;11.47;91.23
56671;BME280;42545;50.054;8.306;2023-05-16T02:14:48;99753.25;;;11.44;90.86
56671;BME280;42545;50.054;8.306;2023-05-16T02:17:15;99757.69;;;11.43;91.32
56671;BME280;42545;50.054;8.306;2023-05-16T02:19:41;99768.22;;;11.40;91.47
56671;BME280;42545;50.054;8.306;2023-05-16T02:22:08;99766.44;;;11.41;91.53
56671;BME280;42545;50.054;8.306;2023-05-16T02:24:34;99768.19;;;11.39;91.55
56671;BME280;42545;50.054;8.306;2023-05-16T02:27:01;99766.44;;;11.38;91.76
56671;BME280;42545;50.054;8.306;2023-05-16T02:29:27;99763.78;;;11.36;91.72
56671;BME280;42545;50.054;8.306;2023-05-16T02:31:56;99769.06;;;11.36;91.60
56671;BME280;42545;50.054;8.306;2023-05-16T02:34:23;99760.25;;;11.35;91.46
56671;BME280;42545;50.054;8.306;2023-05-16T02:36:49;99760.25;;;11.35;91.65
56671;BME280;42545;50.054;8.306;2023-05-16T02:39:16;99766.41;;;11.36;92.10
56671;BME280;42545;50.054;8.306;2023-05-16T02:41:42;99762.88;;;11.37;91.64
56671;BME280;42545;50.054;8.306;2023-05-16T02:44:09;99768.16;;;11.37;92.03
56671;BME280;42545;50.054;8.306;2023-05-16T02:46:36;99759.38;;;11.37;91.89
56671;BME280;42545;50.054;8.306;2023-05-16T02:49:04;99764.63;;;11.35;92.18
56671;BME280;42545;50.054;8.306;2023-05-16T02:51:30;99763.75;;;11.34;92.46
56671;BME280;42545;50.054;8.306;2023-05-16T02:53:57;99773.47;;;11.35;92.15
56671;BME280;42545;50.054;8.306;2023-05-16T02:56:25;99774.34;;;11.38;92.13
56671;BME280;42545;50.054;8.306;2023-05-16T02:58:53;99772.56;;;11.37;91.91
56671;BME280;42545;50.054;8.306;2023-05-16T03:01:20;99773.44;;;11.37;92.16
56671;BME280;42545;50.054;8.306;2023-05-16T03:03:46;99784.00;;;11.37;92.23
56671;BME280;42545;50.054;8.306;2023-05-16T03:06:14;99791.97;;;11.35;91.55
56671;BME280;42545;50.054;8.306;2023-05-16T03:08:41;99778.75;;;11.35;92.04
56671;BME280;42545;50.054;8.306;2023-05-16T03:11:07;99784.91;;;11.36;91.95
56671;BME280;42545;50.054;8.306;2023-05-16T03:13:34;99779.66;;;11.39;91.93
56671;BME280;42545;50.054;8.306;2023-05-16T03:16:00;99781.41;;;11.39;91.86
56671;BME280;42545;50.054;8.306;2023-05-16T03:18:27;99785.81;;;11.38;92.21
56671;BME280;42545;50.054;8.306;2023-05-16T03:20:54;99791.94;;;11.37;91.96
56671;BME280;42545;50.054;8.306;2023-05-16T03:23:23;99794.59;;;11.35;91.90
56671;BME280;42545;50.054;8.306;2023-05-16T03:25:49;99799.88;;;11.34;91.89
56671;BME280;42545;50.054;8.306;2023-05-16T03:28:17;99799.84;;;11.32;92.06
56671;BME280;42545;50.054;8.306;2023-05-16T03:30:44;99802.47;;;11.31;91.66
56671;BME280;42545;50.054;8.306;2023-05-16T03:33:11;99801.56;;;11.29;91.95
56671;BME280;42545;50.054;8.306;2023-05-16T03:35:38;99804.22;;;11.29;92.19
56671;BME280;42545;50.054;8.306;2023-05-16T03:38:05;99791.00;;;11.27;92.29
56671;BME280;42545;50.054;8.306;2023-05-16T03:40:33;99803.31;;;11.27;92.46
56671;BME280;42545;50.054;8.306;2023-05-16T03:43:00;99798.03;;;11.27;92.33
56671;BME280;42545;50.054;8.306;2023-05-16T03:45:27;99807.69;;;11.23;92.09
56671;BME280;42545;50.054;8.306;2023-05-16T03:47:54;99801.50;;;11.21;92.36
56671;BME280;42545;50.054;8.306;2023-05-16T03:50:21;99808.53;;;11.22;92.32
56671;BME280;42545;50.054;8.306;2023-05-16T03:52:56;99797.97;;;11.22;92.40
56671;BME280;42545;50.054;8.306;2023-05-16T03:55:22;99808.50;;;11.21;92.42
56671;BME280;42545;50.054;8.306;2023-05-16T03:57:50;99812.06;;;11.21;92.39
56671;BME280;42545;50.054;8.306;2023-05-16T04:03:39;99815.56;;;11.20;93.09
56671;BME280;42545;50.054;8.306;2023-05-16T04:06:06;99810.28;;;11.17;91.95
56671;BME280;42545;50.054;8.306;2023-05-16T04:08:33;99807.63;;;11.15;92.24
56671;BME280;42545;50.054;8.306;2023-05-16T04:11:00;99804.00;;;11.07;92.08
56671;BME280;42545;50.054;8.306;2023-05-16T04:13:27;99805.81;;;11.14;92.23
56671;BME280;42545;50.054;8.306;2023-05-16T04:15:54;99808.44;;;11.11;91.95
56671;BME280;42545;50.054;8.306;2023-05-16T04:18:20;99819.03;;;11.14;91.88
56671;BME280;42545;50.054;8.306;2023-05-16T04:20:47;99811.97;;;11.12;91.63
56671;BME280;42545;50.054;8.306;2023-05-16T04:23:14;99818.16;;;11.14;91.00
56671;BME280;42545;50.054;8.306;2023-05-16T04:25:40;99821.66;;;11.14;91.05
56671;BME280;42545;50.054;8.306;2023-05-16T04:28:07;99817.25;;;11.12;91.27
56671;BME280;42545;50.054;8.306;2023-05-16T04:30:36;99820.78;;;11.14;91.11
56671;BME280;42545;50.054;8.306;2023-05-16T04:33:03;99819.91;;;11.13;90.82
56671;BME280;42545;50.054;8.306;2023-05-16T04:35:30;99818.16;;;11.14;91.25
56671;BME280;42545;50.054;8.306;2023-05-16T04:37:57;99818.16;;;11.14;90.81
56671;BME280;42545;50.054;8.306;2023-05-16T04:40:24;99815.50;;;11.14;91.24
56671;BME280;42545;50.054;8.306;2023-05-16T04:42:51;99824.34;;;11.16;91.23
56671;BME280;42545;50.054;8.306;2023-05-16T04:45:18;99830.50;;;11.16;91.44
56671;BME280;42545;50.054;8.306;2023-05-16T04:47:46;99832.28;;;11.18;91.21
56671;BME280;42545;50.054;8.306;2023-05-16T04:50:13;99819.06;;;11.18;90.43
56671;BME280;42545;50.054;8.306;2023-05-16T04:52:41;99815.44;;;11.09;90.84
56671;BME280;42545;50.054;8.306;2023-05-16T04:55:08;99825.22;;;11.16;90.77
56671;BME280;42545;50.054;8.306;2023-05-16T04:57:35;99827.00;;;11.18;90.88
56671;BME280;42545;50.054;8.306;2023-05-16T05:00:02;99837.56;;;11.18;91.00
56671;BME280;42545;50.054;8.306;2023-05-16T05:02:32;99834.03;;;11.19;90.46
56671;BME280;42545;50.054;8.306;2023-05-16T05:05:00;99831.41;;;11.20;90.50
56671;BME280;42545;50.054;8.306;2023-05-16T05:07:28;99831.44;;;11.22;90.43
56671;BME280;42545;50.054;8.306;2023-05-16T05:09:55;99834.13;;;11.25;90.52
56671;BME280;42545;50.054;8.306;2023-05-16T05:12:23;99833.25;;;11.27;89.98
56671;BME280;42545;50.054;8.306;2023-05-16T05:14:51;99838.53;;;11.27;89.33
56671;BME280;42545;50.054;8.306;2023-05-16T05:17:19;99826.19;;;11.25;87.75
56671;BME280;42545;50.054;8.306;2023-05-16T05:19:45;99835.94;;;11.32;88.36
56671;BME280;42545;50.054;8.306;2023-05-16T05:22:13;99846.53;;;11.35;87.88
56671;BME280;42545;50.054;8.306;2023-05-16T05:24:40;99842.16;;;11.39;87.01
56671;BME280;42545;50.054;8.306;2023-05-16T05:27:07;99844.81;;;11.40;86.74
56671;BME280;42545;50.054;8.306;2023-05-16T05:29:34;99840.41;;;11.39;86.01
56671;BME280;42545;50.054;8.306;2023-05-16T05:32:00;99847.47;;;11.42;86.24
56671;BME280;42545;50.054;8.306;2023-05-16T05:34:29;99849.25;;;11.44;85.51
56671;BME280;42545;50.054;8.306;2023-05-16T05:36:56;99846.63;;;11.46;84.97
56671;BME280;42545;50.054;8.306;2023-05-16T05:39:24;99846.63;;;11.46;84.68
56671;BME280;42545;50.054;8.306;2023-05-16T05:41:51;99843.97;;;11.44;84.67
56671;BME280;42545;50.054;8.306;2023-05-16T05:44:17;99847.53;;;11.45;84.10
56671;BME280;42545;50.054;8.306;2023-05-16T05:46:44;99853.69;;;11.45;84.19
56671;BME280;42545;50.054;8.306;2023-05-16T05:49:11;99848.41;;;11.45;83.94
56671;BME280;42545;50.054;8.306;2023-05-16T05:51:37;99854.56;;;11.47;83.64
56671;BME280;42545;50.054;8.306;2023-05-16T05:54:04;99854.59;;;11.49;83.39
56671;BME280;42545;50.054;8.306;2023-05-16T05:56:32;99862.53;;;11.49;82.53
56671;BME280;42545;50.054;8.306;2023-05-16T05:58:59;99861.63;;;11.47;82.68
56671;BME280;42545;50.054;8.306;2023-05-16T06:01:25;99870.44;;;11.47;83.02
56671;BME280;42545;50.054;8.306;2023-05-16T06:03:52;99866.00;;;11.45;82.46
56671;BME280;42545;50.054;8.306;2023-05-16T06:09:41;99876.56;;;11.43;83.12
56671;BME280;42545;50.054;8.306;2023-05-16T06:12:09;99884.44;;;11.40;83.35
56671;BME280;42545;50.054;8.306;2023-05-16T06:14:36;99881.81;;;11.40;83.81
56671;BME280;42545;50.054;8.306;2023-05-16T06:17:02;99892.34;;;11.39;83.76
56671;BME280;42545;50.054;8.306;2023-05-16T06:19:29;99904.69;;;11.38;83.72
56671;BME280;42545;50.054;8.306;2023-05-16T06:21:55;99905.53;;;11.35;83.15
56671;BME280;42545;50.054;8.306;2023-05-16T06:24:22;99898.47;;;11.34;83.90
56671;BME280;42545;50.054;8.306;2023-05-16T06:26:48;99907.28;;;11.33;83.80
56671;BME280;42545;50.054;8.306;2023-05-16T06:29:16;99914.31;;;11.34;84.17
56671;BME280;42545;50.054;8.306;2023-05-16T06:31:43;99919.56;;;11.30;84.16
56671;BME280;42545;50.054;8.306;2023-05-16T06:34:10;99926.56;;;11.26;84.61
56671;BME280;42545;50.054;8.306;2023-05-16T06:36:37;99934.44;;;11.22;84.55
56671;BME280;42545;50.054;8.306;2023-05-16T06:39:03;99939.69;;;11.20;84.79
56671;BME280;42545;50.054;8.306;2023-05-16T06:41:30;99944.03;;;11.15;85.09
56671;BME280;42545;50.054;8.306;2023-05-16T06:43:56;99944.84;;;11.11;84.85
56671;BME280;42545;50.054;8.306;2023-05-16T06:46:24;99954.50;;;11.07;84.86
56671;BME280;42545;50.054;8.306;2023-05-16T06:48:51;99947.38;;;11.02;85.01
56671;BME280;42545;50.054;8.306;2023-05-16T06:51:18;99947.34;;;10.99;84.81
56671;BME280;42545;50.054;8.306;2023-05-16T06:53:44;99963.16;;;10.95;84.79
56671;BME280;42545;50.054;8.306;2023-05-16T06:56:11;99954.28;;;10.90;85.31
56671;BME280;42545;50.054;8.306;2023-05-16T06:58:40;99957.75;;;10.88;84.98
56671;BME280;42545;50.054;8.306;2023-05-16T07:01:06;99967.44;;;10.87;85.77
56671;BME280;42545;50.054;8.306;2023-05-16T07:03:34;99967.41;;;10.86;85.67
56671;BME280;42545;50.054;8.306;2023-05-16T07:06:01;99970.84;;;10.80;85.23
56671;BME280;42545;50.054;8.306;2023-05-16T07:08:27;99979.59;;;10.76;85.69
56671;BME280;42545;50.054;8.306;2023-05-16T07:10:54;99971.63;;;10.73;85.69
56671;BME280;42545;50.054;8.306;2023-05-16T07:13:21;99978.63;;;10.71;86.42
56671;BME280;42545;50.054;8.306;2023-05-16T07:15:48;99974.13;;;10.64;86.46
56671;BME280;42545;50.054;8.306;2023-05-16T07:18:14;99984.81;;;10.70;86.88
56671;BME280;42545;50.054;8.306;2023-05-16T07:20:42;99990.94;;;10.69;87.07
56671;BME280;42545;50.054;8.306;2023-05-16T07:23:10;99995.31;;;10.67;86.79
56671;BME280;42545;50.054;8.306;2023-05-16T07:25:36;99999.66;;;10.63;86.95
56671;BME280;42545;50.054;8.306;2023-05-16T07:28:03;99998.72;;;10.60;86.68
56671;BME280;42545;50.054;8.306;2023-05-16T07:30:30;100014.53;;;10.60;86.55
56671;BME280;42545;50.054;8.306;2023-05-16T07:32:57;100019.81;;;10.60;87.26
56671;BME280;42545;50.054;8.306;2023-05-16T07:35:23;100023.31;;;10.58;86.77
56671;BME280;42545;50.054;8.306;2023-05-16T07:37:51;100023.31;;;10.58;87.04
56671;BME280;42545;50.054;8.306;2023-05-16T07:40:18;100034.78;;;10.59;87.23
56671;BME280;42545;50.054;8.306;2023-05-16T07:42:45;100044.41;;;10.58;87.47
56671;BME280;42545;50.054;8.306;2023-05-16T07:45:11;100047.06;;;10.57;87.86
56671;BME280;42545;50.054;8.306;2023-05-16T07:47:38;100056.66;;;10.53;87.38
56671;BME280;42545;50.054;8.306;2023-05-16T07:50:07;100058.31;;;10.47;88.20
56671;BME280;42545;50.054;8.306;2023-05-16T07:52:34;100059.13;;;10.43;88.79
56671;BME280;42545;50.054;8.306;2023-05-16T07:55:02;100052.78;;;10.33;88.99
56671;BME280;42545;50.054;8.306;2023-05-16T07:57:28;100064.97;;;10.26;89.47
56671;BME280;42545;50.054;8.306;2023-05-16T07:59:55;100061.34;;;10.21;90.74
56671;BME280;42545;50.054;8.306;2023-05-16T08:02:50;100063.00;;;10.16;91.62
56671;BME280;42545;50.054;8.306;2023-05-16T08:05:19;100060.16;;;10.05;92.36
56671;BME280;42545;50.054;8.306;2023-05-16T08:07:46;100067.25;;;10.08;93.46
56671;BME280;42545;50.054;8.306;2023-05-16T08:10:14;100080.38;;;10.05;93.60
56671;BME280;42545;50.054;8.306;2023-05-16T08:12:41;100080.38;;;10.05;94.08
56671;BME280;42545;50.054;8.306;2023-05-16T08:15:08;100081.22;;;10.04;94.60
56671;BME280;42545;50.054;8.306;2023-05-16T08:17:35;100083.91;;;10.05;95.17
56671;BME280;42545;50.054;8.306;2023-05-16T08:20:02;100082.09;;;10.03;94.90
56671;BME280;42545;50.054;8.306;2023-05-16T08:22:30;100076.75;;;9.99;95.16
56671;BME280;42545;50.054;8.306;2023-05-16T08:24:57;100079.41;;;9.99;95.42
56671;BME280;42545;50.054;8.306;2023-05-16T08:27:26;100071.38;;;9.93;95.39
56671;BME280;42545;50.054;8.306;2023-05-16T08:29:53;100082.88;;;9.97;95.86
56671;BME280;42545;50.054;8.306;2023-05-16T08:32:20;100086.28;;;9.93;96.07
56671;BME280;42545;50.054;8.306;2023-05-16T08:34:47;100095.91;;;9.91;96.65
56671;BME280;42545;50.054;8.306;2023-05-16T08:37:13;100095.00;;;9.89;97.45
56671;BME280;42545;50.054;8.306;2023-05-16T08:39:40;100101.16;;;9.88;97.85
56671;BME280;42545;50.054;8.306;2023-05-16T08:42:07;100100.22;;;9.86;98.38
56671;BME280;42545;50.054;8.306;2023-05-16T08:44:35;100100.03;;;9.76;97.20
56671;BME280;42545;50.054;8.306;2023-05-16T08:47:11;100106.09;;;9.72;97.82
56671;BME280;42545;50.054;8.306;2023-05-16T08:49:39;100098.94;;;9.67;97.66
56671;BME280;42545;50.054;8.306;2023-05-16T08:52:07;100091.94;;;9.66;98.10
56671;BME280;42545;50.054;8.306;2023-05-16T08:54:35;100098.09;;;9.68;97.87
56671;BME280;42545;50.054;8.306;2023-05-16T08:57:04;100107.72;;;9.67;97.57
56671;BME280;42545;50.054;8.306;2023-05-16T08:59:31;100114.84;;;9.70;97.60
56671;BME280;42545;50.054;8.306;2023-05-16T09:01:59;100109.59;;;9.71;97.19
56671;BME280;42545;50.054;8.306;2023-05-16T09:04:26;100111.28;;;9.68;96.23
56671;BME280;42545;50.054;8.306;2023-05-16T09:06:53;100113.00;;;9.66;95.66
56671;BME280;42545;50.054;8.306;2023-05-16T09:09:19;100118.28;;;9.66;95.97
56671;BME280;42545;50.054;8.306;2023-05-16T09:11:46;100123.59;;;9.69;95.91
56671;BME280;42545;50.054;8.306;2023-05-16T09:14:14;100134.13;;;9.69;95.15
56671;BME280;42545;50.054;8.306;2023-05-16T09:16:40;100130.56;;;9.67;94.71
56671;BME280;42545;50.054;8.306;2023-05-16T09:19:11;100137.63;;;9.68;94.06
56671;BME280;42545;50.054;8.306;2023-05-16T09:21:38;100128.03;;;9.71;94.08
56671;BME280;42545;50.054;8.306;2023-05-16T09:24:06;100134.28;;;9.76;94.40
56671;BME280;42545;50.054;8.306;2023-05-16T09:26:34;100130.91;;;9.82;93.98
56671;BME280;42545;50.054;8.306;2023-05-16T09:29:01;100132.59;;;9.80;92.40
56671;BME280;42545;50.054;8.306;2023-05-16T09:31:35;100128.22;;;9.80;92.41
56671;BME280;42545;50.054;8.306;2023-05-16T09:34:03;100131.69;;;9.78;91.02
56671;BME280;42545;50.054;8.306;2023-05-16T09:36:32;100144.84;;;9.78;90.25
56671;BME280;42545;50.054;8.306;2023-05-16T09:38:59;100139.53;;;9.76;90.91
56671;BME280;42545;50.054;8.306;2023-05-16T09:41:25;100147.59;;;9.82;90.38
56671;BME280;42545;50.054;8.306;2023-05-16T09:43:52;100142.28;;;9.81;89.51
56671;BME280;42545;50.054;8.306;2023-05-16T09:46:24;100144.09;;;9.84;89.47
56671;BME280;42545;50.054;8.306;2023-05-16T09:48:52;100144.13;;;9.85;89.17
56671;BME280;42545;50.054;8.306;2023-05-16T09:51:21;100140.69;;;9.88;87.89
56671;BME280;42545;50.054;8.306;2023-05-16T09:53:49;100145.03;;;9.87;88.18
56671;BME280;42545;50.054;8.306;2023-05-16T09:56:15;100146.00;;;9.91;88.75
56671;BME280;42545;50.054;8.306;2023-05-16T09:58:43;100136.28;;;9.88;88.83
56671;BME280;42545;50.054;8.306;2023-05-16T10:01:10;100144.28;;;9.93;87.37
56671;BME280;42545;50.054;8.306;2023-05-16T10:03:38;100135.59;;;9.97;87.66
56671;BME280;42545;50.054;8.306;2023-05-16T10:06:06;100148.00;;;10.03;88.00
56671;BME280;42545;50.054;8.306;2023-05-16T10:08:34;100139.38;;;10.10;86.81
56671;BME280;42545;50.054;8.306;2023-05-16T10:11:03;100146.53;;;10.17;85.51
56671;BME280;42545;50.054;8.306;2023-05-16T10:13:31;100143.09;;;10.21;83.90
56671;BME280;42545;50.054;8.306;2023-05-16T10:15:59;100143.16;;;10.26;83.35
56671;BME280;42545;50.054;8.306;2023-05-16T10:18:29;100148.53;;;10.30;81.75
56671;BME280;42545;50.054;8.306;2023-05-16T10:21:02;100146.13;;;10.41;81.59
56671;BME280;42545;50.054;8.306;2023-05-16T10:23:30;100147.16;;;10.48;78.86
56671;BME280;42545;50.054;8.306;2023-05-16T10:25:59;100148.13;;;10.54;77.75
56671;BME280;42545;50.054;8.306;2023-05-16T10:28:30;100149.06;;;10.58;74.88
56671;BME280;42545;50.054;8.306;2023-05-16T10:30:56;100150.75;;;10.54;73.61
56671;BME280;42545;50.054;8.306;2023-05-16T10:33:25;100157.94;;;10.62;72.57
56671;BME280;42545;50.054;8.306;2023-05-16T10:35:52;100155.38;;;10.66;72.52
56671;BME280;42545;50.054;8.306;2023-05-16T10:38:20;100152.88;;;10.74;72.89
56671;BME280;42545;50.054;8.306;2023-05-16T10:40:49;100156.53;;;10.81;72.07
56671;BME280;42545;50.054;8.306;2023-05-16T10:43:23;100161.84;;;10.85;71.74
56671;BME280;42545;50.054;8.306;2023-05-16T10:45:55;100154.00;;;10.88;71.18
56671;BME280;42545;50.054;8.306;2023-05-16T10:48:32;100162.88;;;10.92;70.13
56671;BME280;42545;50.054;8.306;2023-05-16T10:50:59;100161.94;;;10.91;70.38
56671;BME280;42545;50.054;8.306;2023-05-16T10:53:35;100161.06;;;10.91;70.15
56671;BME280;42545;50.054;8.306;2023-05-16T10:56:10;100162.84;;;10.90;70.15
56671;BME280;42545;50.054;8.306;2023-05-16T10:58:41;100155.84;;;10.94;70.74
56671;BME280;42545;50.054;8.306;2023-05-16T11:01:21;100152.34;;;10.96;71.32
56671;BME280;42545;50.054;8.306;2023-05-16T11:04:03;100154.25;;;11.05;70.01
56671;BME280;42545;50.054;8.306;2023-05-16T11:06:31;100157.88;;;11.10;70.46
56671;BME280;42545;50.054;8.306;2023-05-16T11:09:06;100149.13;;;11.14;69.55
56671;BME280;42545;50.054;8.306;2023-05-16T11:11:38;100164.25;;;11.23;70.13
56671;BME280;42545;50.054;8.306;2023-05-16T11:14:05;100160.78;;;11.29;68.55
56671;BME280;42545;50.054;8.306;2023-05-16T11:16:34;100164.44;;;11.39;68.64
56671;BME280;42545;50.054;8.306;2023-05-16T11:19:04;100151.47;;;11.52;68.56
56671;BME280;42545;50.054;8.306;2023-05-16T11:22:05;100155.16;;;11.65;66.22
56671;BME280;42545;50.054;8.306;2023-05-16T11:24:33;100159.72;;;11.79;65.36
56671;BME280;42545;50.054;8.306;2023-05-16T11:27:01;100147.44;;;11.82;63.50
56671;BME280;42545;50.054;8.306;2023-05-16T11:29:30;100147.69;;;11.98;63.26
56671;BME280;42545;50.054;8.306;2023-05-16T11:31:59;100149.53;;;12.08;62.07
56671;BME280;42545;50.054;8.306;2023-05-16T11:34:26;100150.53;;;12.16;61.57
56671;BME280;42545;50.054;8.306;2023-05-16T11:36:53;100138.34;;;12.29;61.49
56671;BME280;42545;50.054;8.306;2023-05-16T11:39:20;100135.81;;;12.41;59.09
56671;BME280;42545;50.054;8.306;2023-05-16T11:41:48;100135.97;;;12.57;58.92
56671;BME280;42545;50.054;8.306;2023-05-16T11:44:15;100130.81;;;12.75;56.69
56671;BME280;42545;50.054;8.306;2023-05-16T11:46:42;100135.34;;;12.90;55.31
56671;BME280;42545;50.054;8.306;2023-05-16T11:49:11;100131.09;;;13.07;54.63
56671;BME280;42545;50.054;8.306;2023-05-16T11:51:38;100132.97;;;13.24;54.43
56671;BME280;42545;50.054;8.306;2023-05-16T11:54:05;100136.66;;;13.40;53.80
56671;BME280;42545;50.054;8.306;2023-05-16T11:56:34;100132.28;;;13.54;53.84
56671;BME280;42545;50.054;8.306;2023-05-16T11:59:01;100127.91;;;13.59;53.76
56671;BME280;42545;50.054;8.306;2023-05-16T12:01:33;100143.91;;;13.73;53.13
56671;BME280;42545;50.054;8.306;2023-05-16T12:03:59;100140.38;;;13.83;53.15
56671;BME280;42545;50.054;8.306;2023-05-16T12:06:30;100143.13;;;13.93;52.42
56671;BME280;42545;50.054;8.306;2023-05-16T12:08:56;100142.22;;;13.94;51.39
56671;BME280;42545;50.054;8.306;2023-05-16T12:11:23;100137.78;;;13.90;50.29
56671;BME280;42545;50.054;8.306;2023-05-16T12:13:50;100136.88;;;13.91;50.40
56671;BME280;42545;50.054;8.306;2023-05-16T12:16:17;100132.50;;;13.96;49.54
56671;BME280;42545;50.054;8.306;2023-05-16T12:18:44;100125.44;;;14.07;49.47
56671;BME280;42545;50.054;8.306;2023-05-16T12:21:11;100119.31;;;14.19;48.32
56671;BME280;42545;50.054;8.306;2023-05-16T12:23:40;100127.31;;;14.31;48.51
56671;BME280;42545;50.054;8.306;2023-05-16T12:26:07;100118.44;;;14.40;46.37
56671;BME280;42545;50.054;8.306;2023-05-16T12:28:34;100118.47;;;14.49;46.81
56671;BME280;42545;50.054;8.306;2023-05-16T12:31:06;100124.72;;;14.65;47.46
56671;BME280;42545;50.054;8.306;2023-05-16T12:33:36;100139.81;;;14.78;47.31
56671;BME280;42545;50.054;8.306;2023-05-16T12:36:04;100139.78;;;14.82;45.56
56671;BME280;42545;50.054;8.306;2023-05-16T12:38:31;100137.13;;;14.83;44.08
56671;BME280;42545;50.054;8.306;2023-05-16T12:41:00;100128.28;;;14.89;44.78
56671;BME280;42545;50.054;8.306;2023-05-16T12:43:26;100130.06;;;14.99;44.82
56671;BME280;42545;50.054;8.306;2023-05-16T12:45:54;100128.25;;;15.09;43.28
56671;BME280;42545;50.054;8.306;2023-05-16T12:48:22;100139.75;;;15.18;43.18
56671;BME280;42545;50.054;8.306;2023-05-16T12:50:49;100141.56;;;15.24;42.05
56671;BME280;42545;50.054;8.306;2023-05-16T12:53:18;100144.19;;;15.30;42.69
56671;BME280;42545;50.054;8.306;2023-05-16T12:55:44;100145.97;;;15.27;41.73
56671;BME280;42545;50.054;8.306;2023-05-16T12:58:13;100145.94;;;15.31;42.83
56671;BME280;42545;50.054;8.306;2023-05-16T13:00:41;100151.28;;;15.34;42.80
56671;BME280;42545;50.054;8.306;2023-05-16T13:03:08;100140.63;;;15.37;42.96
56671;BME280;42545;50.054;8.306;2023-05-16T13:05:35;100151.28;;;15.39;42.94
56671;BME280;42545;50.054;8.306;2023-05-16T13:08:01;100154.81;;;15.41;41.88